Time;durP1;ratioP1;P1;durP2;ratioP2;P2;SDS_P1;SDS_P2;PMS_P1;PMS_P2;Temp;Humidity;BMP_temperature;BMP_pressure;BME280_temperature;BME280_humidity;BME280_pressure;Samples;Min_cycle;Max_cycle;Signal;HPM_P1;HPM_P2
2022/05/09 00:00:08;;;;;;;4.53;2.40;;;21.70;44.80;23.20;101809.00;;;;5047677;28;20555;-54
2022/05/09 00:02:34;;;;;;;2.70;2.37;;;21.70;44.90;23.10;101811.00;;;;5047570;28;20179;-55
2022/05/09 00:05:00;;;;;;;3.53;2.50;;;21.70;45.00;23.10;101805.00;;;;5047238;28;20868;-55
2022/05/09 00:07:25;;;;;;;3.10;2.43;;;21.60;44.90;23.10;101802.00;;;;5047142;28;20174;-55
2022/05/09 00:09:51;;;;;;;3.47;2.57;;;21.60;45.00;23.00;101799.00;;;;5046861;28;20193;-54
2022/05/09 00:12:17;;;;;;;2.70;2.40;;;21.50;45.00;23.00;101802.00;;;;5047012;28;20185;-54
2022/05/09 00:14:43;;;;;;;3.17;2.60;;;21.50;45.00;23.00;101794.00;;;;5047113;28;20289;-54
2022/05/09 00:17:08;;;;;;;3.20;2.53;;;21.50;45.00;23.00;101803.00;;;;5046733;28;20174;-55
2022/05/09 00:19:35;;;;;;;3.00;2.70;;;21.50;45.10;23.00;101797.00;;;;5046945;28;20254;-55
2022/05/09 00:22:01;;;;;;;2.97;2.50;;;21.50;45.20;22.90;101798.00;;;;5046429;28;20343;-54
2022/05/09 00:24:26;;;;;;;3.97;2.60;;;21.40;45.20;22.90;101791.00;;;;5051128;28;20650;-55
2022/05/09 00:26:52;;;;;;;3.67;2.73;;;21.40;45.30;22.90;101795.00;;;;5046638;28;20178;-55
2022/05/09 00:29:20;;;;;;;4.00;2.80;;;21.40;45.30;22.90;101790.00;;;;5046725;28;20213;-55
2022/05/09 00:31:47;;;;;;;4.50;2.40;;;21.40;45.20;22.80;101796.00;;;;5047181;28;20173;-54
2022/05/09 00:34:17;;;;;;;3.40;2.50;;;21.40;45.10;22.80;101803.00;;;;5046189;28;20186;-55
2022/05/09 00:36:42;;;;;;;3.67;2.57;;;21.40;45.00;22.80;101787.00;;;;5046730;28;20174;-55
2022/05/09 00:39:08;;;;;;;3.33;2.57;;;21.40;44.80;22.80;101787.00;;;;5046642;28;20696;-55
2022/05/09 00:41:34;;;;;;;2.93;2.60;;;21.40;44.70;22.70;101784.00;;;;5046476;28;20174;-54
2022/05/09 00:44:21;;;;;;;4.17;2.77;;;21.30;44.60;22.70;101784.00;;;;5046645;28;20172;-54
2022/05/09 00:46:51;;;;;;;5.03;2.60;;;21.30;44.70;22.70;101795.00;;;;5045365;28;20205;-55
2022/05/09 00:49:34;;;;;;;2.83;2.37;;;21.30;44.60;22.70;101796.00;;;;5046260;28;20273;-54
2022/05/09 00:52:26;;;;;;;3.47;2.50;;;21.30;44.70;22.60;101788.00;;;;5045115;28;20245;-55
2022/05/09 00:55:06;;;;;;;3.57;2.50;;;21.30;44.60;22.60;101789.00;;;;5044926;28;20190;-54
2022/05/09 00:57:47;;;;;;;4.23;2.50;;;21.30;44.50;22.60;101782.00;;;;5044644;28;20159;-54
2022/05/09 01:00:16;;;;;;;3.20;2.77;;;21.20;44.40;22.60;101786.00;;;;5045342;28;20223;-54
2022/05/09 01:02:46;;;;;;;2.87;2.30;;;21.20;44.40;22.50;101767.00;;;;5046272;28;20261;-53
2022/05/09 01:05:12;;;;;;;3.50;2.40;;;21.20;44.30;22.50;101786.00;;;;5044984;28;20197;-54
2022/05/09 01:07:39;;;;;;;3.43;2.60;;;21.20;44.30;22.30;101767.00;;;;5044357;28;20209;-54
2022/05/09 01:10:05;;;;;;;4.33;2.67;;;21.10;44.30;22.50;101776.00;;;;5044395;28;20232;-55
2022/05/09 01:12:32;;;;;;;3.37;2.40;;;21.10;44.30;22.40;101786.00;;;;5045787;28;20176;-56
2022/05/09 01:15:00;;;;;;;3.67;2.57;;;21.00;44.10;22.40;101765.00;;;;5044505;28;20196;-55
2022/05/09 01:17:26;;;;;;;2.93;2.27;;;21.10;44.40;22.40;101767.00;;;;5044340;28;20209;-55
2022/05/09 01:19:53;;;;;;;3.73;2.37;;;21.00;44.40;22.40;101767.00;;;;5044591;28;20249;-55
2022/05/09 01:22:25;;;;;;;3.03;2.43;;;21.00;44.40;22.30;101771.00;;;;5044225;28;20730;-56
2022/05/09 01:24:52;;;;;;;4.47;2.50;;;21.00;44.40;22.30;101765.00;;;;5045653;28;20182;-55
2022/05/09 01:27:18;;;;;;;2.73;2.30;;;21.00;44.20;22.30;101745.00;;;;5045540;28;20172;-56
2022/05/09 01:30:08;;;;;;;3.20;2.40;;;21.00;44.20;22.30;101769.00;;;;5044288;28;20190;-56
2022/05/09 01:32:39;;;;;;;4.43;2.60;;;21.00;44.00;22.20;101764.00;;;;5051982;28;20176;-55
2022/05/09 01:35:11;;;;;;;4.87;3.83;;;20.90;44.00;22.20;101756.00;;;;5057839;28;20714;-56
2022/05/09 01:37:37;;;;;;;5.50;4.60;;;20.90;44.10;22.20;101766.00;;;;5053455;28;20170;-56
2022/05/09 01:40:04;;;;;;;5.87;4.83;;;20.90;44.00;22.20;101772.00;;;;5046756;28;20271;-55
2022/05/09 01:42:29;;;;;;;5.87;4.60;;;20.80;44.00;22.10;101768.00;;;;5045796;28;20173;-55
2022/05/09 01:44:55;;;;;;;4.73;3.90;;;20.80;43.90;22.10;101769.00;;;;5045359;28;20204;-55
2022/05/09 01:50:06;;;;;;;4.57;3.10;;;20.80;44.20;22.10;101695.00;;;;5046014;28;20175;-55
2022/05/09 01:52:31;;;;;;;3.53;2.60;;;20.80;44.20;22.10;101763.00;;;;5046475;28;20781;-56
2022/05/09 01:54:57;;;;;;;3.77;2.50;;;20.80;43.90;22.10;101765.00;;;;5045820;28;20529;-53
2022/05/09 01:57:23;;;;;;;4.50;2.90;;;20.80;43.90;22.00;101771.00;;;;5045080;28;20177;-54
2022/05/09 01:59:48;;;;;;;3.33;2.60;;;20.80;43.80;22.00;101767.00;;;;5048398;28;20170;-54
2022/05/09 02:02:18;;;;;;;3.23;2.70;;;20.70;43.80;22.00;101776.00;;;;5053690;28;20790;-54
2022/05/09 02:04:43;;;;;;;2.83;2.47;;;20.70;43.90;22.00;101771.00;;;;5050314;28;20643;-55
2022/05/09 02:07:14;;;;;;;3.50;2.70;;;20.70;44.10;21.90;101773.00;;;;5049258;28;20216;-56
2022/05/09 02:09:49;;;;;;;3.07;2.50;;;20.70;44.10;21.90;101780.00;;;;5049224;28;20200;-55
2022/05/09 02:12:16;;;;;;;2.97;2.50;;;20.70;44.10;21.90;101777.00;;;;5048938;28;20860;-55
2022/05/09 02:14:43;;;;;;;2.90;2.60;;;20.60;44.10;21.90;101786.00;;;;5049445;28;20210;-55
2022/05/09 02:17:10;;;;;;;3.27;2.37;;;20.60;44.10;21.80;101780.00;;;;5049121;28;20551;-55
2022/05/09 02:19:36;;;;;;;3.30;2.20;;;20.60;44.10;21.80;101785.00;;;;5049084;28;20269;-55
2022/05/09 02:22:02;;;;;;;2.50;2.27;;;20.60;44.10;21.80;101778.00;;;;5049374;28;20175;-55
2022/05/09 02:24:29;;;;;;;2.53;2.20;;;20.50;44.00;21.80;101787.00;;;;5049041;28;20216;-54
2022/05/09 02:26:55;;;;;;;2.90;2.40;;;20.50;44.00;21.80;101785.00;;;;5048725;28;20188;-54
2022/05/09 02:29:21;;;;;;;2.90;2.50;;;20.50;44.00;21.80;101774.00;;;;5048799;28;20271;-55
2022/05/09 02:31:47;;;;;;;3.67;2.60;;;20.50;44.00;21.70;101780.00;;;;5048850;28;20227;-54
2022/05/09 02:34:13;;;;;;;3.43;2.50;;;20.40;44.00;21.70;101765.00;;;;5048752;28;20197;-55
2022/05/09 02:36:39;;;;;;;3.10;2.40;;;20.40;44.10;21.70;101765.00;;;;5048705;28;20244;-54
2022/05/09 02:39:05;;;;;;;3.70;2.30;;;20.40;44.10;21.70;101760.00;;;;5048715;28;20217;-55
2022/05/09 02:41:30;;;;;;;2.87;2.30;;;20.40;44.20;21.70;101763.00;;;;5048736;28;20178;-54
2022/05/09 02:43:56;;;;;;;3.97;2.37;;;20.40;44.20;21.60;101765.00;;;;5048581;28;20247;-54
2022/05/09 02:46:22;;;;;;;2.93;2.43;;;20.40;44.30;21.60;101765.00;;;;5048589;28;20178;-55
2022/05/09 02:48:48;;;;;;;4.27;2.40;;;20.30;44.30;21.60;101767.00;;;;5048374;28;20201;-56
2022/05/09 02:51:14;;;;;;;2.50;2.30;;;20.30;44.40;21.60;101766.00;;;;5048528;28;20187;-54
2022/05/09 02:53:40;;;;;;;2.67;2.37;;;20.30;45.00;21.50;101759.00;;;;5048481;28;20216;-55
2022/05/09 02:56:05;;;;;;;3.07;2.30;;;20.30;44.40;21.50;101758.00;;;;5047801;28;20239;-55
2022/05/09 02:58:32;;;;;;;2.60;2.40;;;20.30;44.50;21.50;101760.00;;;;5048407;28;20183;-55
2022/05/09 03:00:57;;;;;;;2.43;2.20;;;20.30;44.50;21.50;101760.00;;;;5048295;28;20172;-55
2022/05/09 03:06:08;;;;;;;3.77;2.40;;;20.20;44.50;21.40;101756.00;;;;5047156;28;20199;-54
2022/05/09 03:08:34;;;;;;;2.33;2.10;;;20.20;44.50;21.40;101761.00;;;;5047743;28;20212;-54
2022/05/09 03:11:00;;;;;;;2.70;2.40;;;20.10;44.40;21.40;101763.00;;;;5047423;28;20189;-53
2022/05/09 03:13:26;;;;;;;5.40;2.30;;;20.10;44.40;21.40;101758.00;;;;5048577;28;20248;-55
2022/05/09 03:15:52;;;;;;;3.33;2.40;;;20.10;44.60;21.40;101750.00;;;;5055606;28;20194;-58
2022/05/09 03:18:22;;;;;;;3.40;2.60;;;20.10;44.90;21.30;101761.00;;;;5060119;28;20175;-54
2022/05/09 03:20:48;;;;;;;8.70;2.70;;;20.10;44.90;21.30;101765.00;;;;5052100;28;20194;-55
2022/05/09 03:23:14;;;;;;;3.30;2.57;;;20.00;44.70;21.30;101753.00;;;;5048056;28;20274;-55
2022/05/09 03:25:40;;;;;;;3.33;2.50;;;19.90;44.80;21.30;101753.00;;;;5047632;28;20253;-55
2022/05/09 03:28:08;;;;;;;3.20;2.60;;;20.00;44.80;21.30;101763.00;;;;5046896;28;20191;-55
2022/05/09 03:30:34;;;;;;;2.60;2.37;;;19.90;44.80;21.20;101756.00;;;;5047253;28;20245;-54
2022/05/09 03:33:00;;;;;;;3.50;2.40;;;19.90;44.80;21.20;101751.00;;;;5047697;28;20178;-54
2022/05/09 03:35:26;;;;;;;3.10;2.47;;;19.90;44.90;21.20;101746.00;;;;5045415;28;20903;-54
2022/05/09 03:37:53;;;;;;;3.23;2.50;;;19.80;44.80;21.20;101757.00;;;;5046519;28;20168;-55
2022/05/09 03:40:20;;;;;;;4.27;2.43;;;19.80;44.80;21.20;101746.00;;;;5047211;28;20170;-55
2022/05/09 03:42:46;;;;;;;3.00;2.37;;;19.80;44.80;21.10;101744.00;;;;5047886;28;20180;-55
2022/05/09 03:45:12;;;;;;;2.47;2.27;;;19.80;44.90;21.10;101754.00;;;;5047373;28;20190;-54
2022/05/09 03:47:38;;;;;;;2.73;2.33;;;19.80;44.90;21.10;101746.00;;;;5043089;28;20851;-54
2022/05/09 03:50:04;;;;;;;2.90;2.40;;;19.80;44.80;21.10;101735.00;;;;5035830;28;20210;-54
2022/05/09 03:52:30;;;;;;;3.03;2.43;;;19.70;44.80;21.10;101744.00;;;;5047456;28;20598;-55
2022/05/09 03:54:57;;;;;;;3.93;2.43;;;19.70;44.80;21.10;101738.00;;;;5053318;28;20724;-56
2022/05/09 03:57:23;;;;;;;3.13;2.57;;;19.60;44.80;21.00;101744.00;;;;5046875;28;20629;-55
2022/05/09 03:59:49;;;;;;;3.23;2.47;;;19.70;44.90;21.00;101737.00;;;;5046905;28;20175;-55
2022/05/09 04:02:15;;;;;;;3.20;2.37;;;19.60;44.80;21.00;101741.00;;;;5047027;28;20201;-55
2022/05/09 04:04:41;;;;;;;2.70;2.50;;;19.60;44.80;21.00;101739.00;;;;5046722;28;20210;-55
2022/05/09 04:07:07;;;;;;;2.47;2.27;;;19.60;44.90;20.90;101742.00;;;;5046527;28;20534;-55
2022/05/09 04:09:32;;;;;;;2.67;2.47;;;19.60;44.90;20.90;101737.00;;;;5046152;28;20202;-55
2022/05/09 04:11:58;;;;;;;3.33;2.70;;;19.50;44.90;20.90;101742.00;;;;5046653;28;20201;-55
2022/05/09 04:17:09;;;;;;;4.50;2.80;;;19.50;45.00;20.80;101742.00;;;;5045967;28;20158;-55
2022/05/09 04:19:35;;;;;;;3.17;2.50;;;19.50;45.00;20.80;101745.00;;;;5045652;28;20191;-54
2022/05/09 04:22:02;;;;;;;2.93;2.50;;;19.50;45.00;20.80;101748.00;;;;5044000;28;20182;-55
2022/05/09 04:24:30;;;;;;;3.00;2.60;;;19.40;45.00;20.80;101753.00;;;;5046530;28;20201;-55
2022/05/09 04:26:57;;;;;;;3.77;2.70;;;19.40;45.10;20.80;101758.00;;;;5046376;28;20178;-57
2022/05/09 04:29:22;;;;;;;3.53;2.43;;;19.40;45.30;20.70;101748.00;;;;5045546;28;20191;-54
2022/05/09 04:31:48;;;;;;;2.60;2.40;;;19.40;45.50;20.70;101753.00;;;;5046500;28;20171;-53
2022/05/09 04:34:14;;;;;;;3.90;2.60;;;19.30;45.50;20.70;101750.00;;;;5045915;28;20195;-56
2022/05/09 04:36:41;;;;;;;3.97;2.73;;;19.40;45.70;20.70;101753.00;;;;5046247;28;20631;-55
2022/05/09 04:39:06;;;;;;;3.00;2.53;;;19.30;45.60;20.60;101760.00;;;;5045922;28;20175;-54
2022/05/09 04:41:32;;;;;;;3.60;2.50;;;19.30;45.50;20.60;101753.00;;;;5046016;28;20228;-56
2022/05/09 04:43:59;;;;;;;4.10;3.23;;;19.30;45.60;20.60;101755.00;;;;5046533;28;20884;-56
2022/05/09 04:46:25;;;;;;;7.17;2.90;;;19.30;45.60;20.50;101752.00;;;;5044855;28;20182;-56
2022/05/09 04:48:51;;;;;;;6.80;3.10;;;19.30;45.60;20.50;101761.00;;;;5045481;28;20202;-55
2022/05/09 04:51:17;;;;;;;5.60;2.93;;;19.20;45.80;20.50;101760.00;;;;5046018;28;20165;-54
2022/05/09 04:53:43;;;;;;;6.13;3.23;;;19.20;46.00;20.50;101754.00;;;;5055152;28;20178;-56
2022/05/09 04:56:09;;;;;;;10.00;3.20;;;19.20;46.00;20.50;101753.00;;;;5057516;28;20194;-55
2022/05/09 04:58:34;;;;;;;6.33;3.37;;;19.20;46.00;20.50;101751.00;;;;5048993;28;20186;-54
2022/05/09 05:01:00;;;;;;;8.40;3.13;;;19.20;46.00;20.40;101687.00;;;;5045725;28;20557;-54
2022/05/09 05:03:26;;;;;;;6.27;2.80;;;19.10;45.90;20.40;101749.00;;;;5045279;28;20190;-55
2022/05/09 05:05:52;;;;;;;4.77;2.90;;;19.10;45.90;20.40;101753.00;;;;5044947;28;20251;-56
2022/05/09 05:08:18;;;;;;;4.70;2.87;;;19.10;45.90;20.40;101757.00;;;;5043830;28;20209;-55
2022/05/09 05:10:44;;;;;;;5.60;2.77;;;19.10;45.90;20.40;101759.00;;;;5045897;28;20209;-54
2022/05/09 05:13:12;;;;;;;4.07;2.80;;;19.10;45.90;20.30;101765.00;;;;5045388;28;20727;-56
2022/05/09 05:15:38;;;;;;;4.70;2.80;;;19.10;46.00;20.30;101758.00;;;;5045473;28;20193;-55
2022/05/09 05:18:03;;;;;;;4.90;2.90;;;19.00;45.90;20.30;101763.00;;;;5045033;28;20170;-55
2022/05/09 05:20:30;;;;;;;3.27;2.70;;;19.00;45.90;20.30;101754.00;;;;5045492;28;20182;-55
2022/05/09 05:22:56;;;;;;;3.60;2.80;;;19.10;46.00;20.20;101762.00;;;;5044471;28;20205;-55
2022/05/09 05:25:26;;;;;;;6.60;2.93;;;19.00;46.00;20.20;101759.00;;;;5045991;28;20663;-55
2022/05/09 05:27:52;;;;;;;3.10;2.80;;;19.00;45.90;20.20;101764.00;;;;5044962;28;20709;-54
2022/05/09 05:30:18;;;;;;;4.03;2.77;;;19.00;46.00;20.20;101758.00;;;;5051193;28;20498;-56
2022/05/09 05:32:44;;;;;;;2.97;2.67;;;19.00;46.10;20.20;101759.00;;;;5052714;28;20292;-55
2022/05/09 05:35:13;;;;;;;4.43;2.73;;;19.00;46.20;20.10;101759.00;;;;5045894;28;20320;-55
2022/05/09 05:37:39;;;;;;;3.63;2.63;;;19.00;46.20;20.10;101770.00;;;;5045293;28;20170;-55
2022/05/09 05:40:06;;;;;;;3.13;2.47;;;19.00;46.30;20.10;101763.00;;;;5045339;28;20209;-55
2022/05/09 05:42:32;;;;;;;3.87;2.90;;;18.90;46.20;20.10;101760.00;;;;5045507;28;20643;-54
2022/05/09 05:44:57;;;;;;;3.53;2.70;;;18.90;46.30;20.10;101766.00;;;;5045342;28;20186;-56
2022/05/09 05:47:23;;;;;;;3.57;2.80;;;18.90;46.40;20.10;101773.00;;;;5044918;28;20247;-55
2022/05/09 05:49:49;;;;;;;4.20;2.63;;;18.90;46.30;20.10;101769.00;;;;5045325;28;20659;-55
2022/05/09 05:52:15;;;;;;;3.20;2.70;;;18.90;46.30;20.10;101777.00;;;;5045444;28;20484;-54
2022/05/09 05:54:43;;;;;;;3.27;2.67;;;18.90;46.40;20.00;101779.00;;;;5045539;28;20655;-55
2022/05/09 05:57:16;;;;;;;4.00;2.70;;;18.90;46.50;20.00;101775.00;;;;5044545;28;20174;-56
2022/05/09 05:59:55;;;;;;;3.43;2.83;;;18.90;46.60;20.00;101763.00;;;;5043376;28;20189;-55
2022/05/09 06:02:21;;;;;;;3.87;2.80;;;18.90;46.60;19.90;101774.00;;;;5043830;28;20596;-55
2022/05/09 06:04:47;;;;;;;3.30;2.90;;;18.90;46.60;19.90;101776.00;;;;5045354;28;20206;-55
2022/05/09 06:07:13;;;;;;;5.40;2.83;;;18.90;46.70;19.90;101773.00;;;;5044672;28;20542;-55
2022/05/09 06:09:39;;;;;;;3.40;2.70;;;18.90;46.80;19.90;101770.00;;;;5044440;28;20346;-56
2022/05/09 06:12:06;;;;;;;3.00;2.50;;;18.90;47.00;19.90;101767.00;;;;5043407;28;20651;-54
2022/05/09 06:14:31;;;;;;;2.87;2.53;;;18.90;46.90;19.90;101774.00;;;;5045033;28;20249;-55
2022/05/09 06:16:57;;;;;;;4.07;3.00;;;18.90;47.00;19.90;101782.00;;;;5044375;28;20227;-55
2022/05/09 06:19:24;;;;;;;4.03;3.17;;;18.90;47.10;19.80;101776.00;;;;5044350;28;20367;-55
2022/05/09 06:21:50;;;;;;;4.20;2.60;;;18.90;47.10;19.80;101774.00;;;;5044699;28;20197;-55
2022/05/09 06:24:17;;;;;;;3.67;2.70;;;18.90;47.00;19.80;101781.00;;;;5044715;28;20633;-54
2022/05/09 06:26:44;;;;;;;3.63;2.73;;;19.00;47.20;19.80;101778.00;;;;5044788;28;20185;-54
2022/05/09 06:29:10;;;;;;;2.63;2.43;;;18.90;47.10;19.80;101778.00;;;;5044024;28;20721;-55
2022/05/09 06:31:37;;;;;;;4.07;2.90;;;19.00;47.20;19.80;101781.00;;;;5044547;28;20182;-54
2022/05/09 06:34:04;;;;;;;3.97;2.70;;;18.90;47.10;19.80;101777.00;;;;5042783;28;20198;-55
2022/05/09 06:36:35;;;;;;;4.90;2.67;;;18.90;47.10;19.80;101794.00;;;;5044626;28;20541;-55
2022/05/09 06:39:02;;;;;;;4.43;3.17;;;18.90;47.30;19.80;101790.00;;;;5044357;28;20466;-55
2022/05/09 06:41:28;;;;;;;3.37;2.70;;;19.00;47.50;19.60;101792.00;;;;5046314;28;20642;-56
2022/05/09 06:43:54;;;;;;;3.37;2.67;;;18.90;47.30;19.80;101786.00;;;;5048125;28;20170;-56
2022/05/09 06:46:19;;;;;;;3.80;2.90;;;18.90;47.50;19.80;101782.00;;;;5050771;28;20174;-56
2022/05/09 06:48:45;;;;;;;3.70;2.97;;;18.90;47.60;19.80;101787.00;;;;5048475;28;20202;-54
2022/05/09 06:51:11;;;;;;;3.07;2.77;;;19.00;47.80;19.80;101790.00;;;;5048325;28;20265;-55
2022/05/09 06:53:37;;;;;;;5.80;3.20;;;19.00;48.00;19.70;101776.00;;;;5048608;28;20174;-53
2022/05/09 06:56:04;;;;;;;5.40;2.67;;;18.90;48.00;19.70;101776.00;;;;5047945;28;20194;-54
2022/05/09 06:58:29;;;;;;;3.70;2.83;;;18.90;48.30;19.80;101772.00;;;;5047832;28;20387;-54
2022/05/09 07:00:56;;;;;;;3.37;2.77;;;18.90;48.40;19.70;101785.00;;;;5048425;28;20180;-53
2022/05/09 07:03:22;;;;;;;3.90;2.73;;;18.90;48.50;19.80;101777.00;;;;5048121;28;20194;-54
2022/05/09 07:05:49;;;;;;;4.23;2.80;;;18.90;48.50;19.70;101773.00;;;;5048320;28;20208;-54
2022/05/09 07:08:15;;;;;;;4.70;3.07;;;18.90;48.60;19.70;101775.00;;;;5059154;28;20186;-53
2022/05/09 07:10:41;;;;;;;3.57;2.77;;;18.90;48.80;19.70;101758.00;;;;5047379;28;20209;-53
2022/05/09 07:13:07;;;;;;;4.40;2.93;;;18.80;49.10;19.70;101774.00;;;;5046781;28;20169;-54
2022/05/09 07:15:33;;;;;;;3.70;2.60;;;18.80;49.20;19.70;101781.00;;;;5047691;28;20193;-54
2022/05/09 07:17:59;;;;;;;5.90;2.87;;;18.80;49.20;19.70;101774.00;;;;5047257;28;20183;-54
2022/05/09 07:20:26;;;;;;;4.23;2.50;;;18.80;49.40;19.70;101769.00;;;;5047286;28;20174;-54
2022/05/09 07:22:56;;;;;;;4.93;2.80;;;18.80;49.20;19.70;101772.00;;;;5047557;28;20249;-55
2022/05/09 07:25:23;;;;;;;3.33;2.70;;;18.80;49.20;19.70;101770.00;;;;5047924;28;20201;-54
2022/05/09 07:27:49;;;;;;;6.10;2.90;;;18.80;49.20;19.70;101767.00;;;;5047421;28;20170;-54
2022/05/09 07:30:18;;;;;;;3.20;2.50;;;18.80;49.40;19.70;101764.00;;;;5047301;28;20525;-53
2022/05/09 07:32:44;;;;;;;4.50;2.83;;;18.90;49.60;19.70;101764.00;;;;5047497;28;20178;-53
2022/05/09 07:35:12;;;;;;;4.07;3.00;;;18.80;49.50;19.70;101770.00;;;;5047651;28;20778;-54
2022/05/09 07:37:38;;;;;;;6.90;2.90;;;18.90;49.80;19.70;101767.00;;;;5047073;28;20166;-56
2022/05/09 07:40:05;;;;;;;3.63;2.90;;;18.80;50.00;19.70;101762.00;;;;5047212;28;20275;-53
2022/05/09 07:42:34;;;;;;;4.37;2.80;;;18.80;50.00;19.70;101764.00;;;;5047641;28;20448;-54
2022/05/09 07:45:01;;;;;;;2.97;2.67;;;18.80;50.10;19.70;101762.00;;;;5047737;28;20202;-54
2022/05/09 07:47:27;;;;;;;4.33;2.80;;;18.80;50.10;19.70;101757.00;;;;5046485;28;20166;-54
2022/05/09 07:49:52;;;;;;;3.87;2.80;;;18.80;50.00;19.70;101759.00;;;;5046787;28;20698;-54
2022/05/09 07:52:18;;;;;;;4.43;2.60;;;18.80;50.10;19.70;101763.00;;;;5047336;28;20292;-54
2022/05/09 07:54:46;;;;;;;3.80;3.07;;;18.80;50.10;19.70;101752.00;;;;5046859;28;20220;-53
2022/05/09 07:57:12;;;;;;;4.20;2.80;;;18.80;50.10;19.70;101762.00;;;;5044422;28;20189;-54
2022/05/09 07:59:38;;;;;;;6.80;2.97;;;18.80;50.20;19.70;101765.00;;;;5046066;28;20182;-54
2022/05/09 08:02:04;;;;;;;4.40;2.90;;;18.80;50.20;19.70;101765.00;;;;4852515;28;20698;-53
2022/05/09 08:04:30;;;;;;;3.27;2.90;;;18.80;50.60;19.70;101767.00;;;;5045654;28;20882;-54
2022/05/09 08:06:55;;;;;;;3.70;2.50;;;18.90;51.00;19.70;101755.00;;;;5045154;28;20268;-54
2022/05/09 08:09:21;;;;;;;4.60;3.00;;;18.80;51.40;19.80;101762.00;;;;5046294;28;20202;-54
2022/05/09 08:11:47;;;;;;;4.93;3.17;;;18.80;51.30;19.80;101774.00;;;;5046594;28;20925;-53
2022/05/09 08:14:12;;;;;;;5.03;3.23;;;18.90;51.10;19.80;101765.00;;;;5046497;28;20263;-54
2022/05/09 08:16:39;;;;;;;4.13;3.10;;;18.90;51.30;19.80;101752.00;;;;5046478;28;20177;-54
2022/05/09 08:19:05;;;;;;;3.57;2.90;;;18.80;51.70;19.70;101752.00;;;;5046422;28;20170;-54
2022/05/09 08:21:30;;;;;;;3.53;3.07;;;18.80;51.90;19.80;101751.00;;;;5046719;28;20429;-54
2022/05/09 08:23:57;;;;;;;4.30;2.87;;;18.80;52.10;19.80;101760.00;;;;5046338;28;20356;-55
2022/05/09 08:26:23;;;;;;;4.87;2.87;;;18.90;52.20;19.80;101752.00;;;;5046081;28;20174;-54
2022/05/09 08:28:56;;;;;;;6.63;3.27;;;18.90;52.50;19.80;101753.00;;;;5046654;28;20213;-54
2022/05/09 08:31:22;;;;;;;4.70;3.10;;;18.90;53.10;19.80;101750.00;;;;5046653;28;20166;-55
2022/05/09 08:33:50;;;;;;;4.03;3.10;;;18.90;53.70;19.80;101761.00;;;;5045782;28;20250;-54
2022/05/09 08:39:02;;;;;;;10.90;3.73;;;19.00;55.10;19.90;101762.00;;;;5051441;28;20182;-54
2022/05/09 08:41:56;;;;;;;6.47;3.53;;;19.10;55.60;19.90;101754.00;;;;5048040;28;20173;-54
2022/05/09 08:44:44;;;;;;;7.47;3.60;;;19.10;54.30;20.00;101746.00;;;;5045342;28;20196;-54
2022/05/09 08:47:57;;;;;;;7.10;3.43;;;19.10;54.50;20.00;101757.00;;;;5044415;28;20171;-55
2022/05/09 08:50:41;;;;;;;5.43;3.53;;;19.10;54.50;19.90;101744.00;;;;5042177;28;20222;-54
2022/05/09 08:53:12;;;;;;;6.27;4.10;;;19.00;55.00;19.90;101749.00;;;;5039731;28;20163;-55
2022/05/09 08:55:40;;;;;;;5.53;4.10;;;19.10;54.80;19.90;101743.00;;;;5044600;28;20208;-56
2022/05/09 08:58:19;;;;;;;5.47;4.13;;;19.00;55.00;19.90;101751.00;;;;5044406;28;20166;-54
2022/05/09 09:00:46;;;;;;;5.93;3.87;;;19.10;54.90;19.70;101766.00;;;;5036048;28;20292;-55
2022/05/09 09:03:24;;;;;;;4.27;3.47;;;19.10;54.80;20.00;101742.00;;;;4998126;28;20278;-54
2022/05/09 09:05:52;;;;;;;5.00;3.40;;;19.10;56.00;20.00;101734.00;;;;5064397;28;20245;-54
2022/05/09 09:08:55;;;;;;;9.17;3.83;;;19.20;56.00;20.10;101739.00;;;;5063777;28;20769;-54
2022/05/09 09:11:48;;;;;;;4.60;3.40;;;19.20;56.50;20.10;101732.00;;;;5064686;28;20149;-55
2022/05/09 09:14:44;;;;;;;7.60;3.50;;;19.30;56.30;20.10;101738.00;;;;5064416;28;20200;-53
2022/05/09 09:17:43;;;;;;;6.83;3.37;;;19.30;56.00;20.20;101736.00;;;;5064490;28;20220;-54
2022/05/09 09:20:20;;;;;;;9.50;3.13;;;19.40;56.50;20.20;101720.00;;;;5064292;28;20257;-54
2022/05/09 09:23:04;;;;;;;7.07;3.83;;;19.40;56.20;20.20;101724.00;;;;5047725;28;20165;-54
2022/05/09 09:25:48;;;;;;;12.67;3.40;;;19.40;56.20;20.20;101720.00;;;;5065447;28;20197;-54
2022/05/09 09:28:22;;;;;;;7.00;3.40;;;19.40;56.30;20.30;101726.00;;;;5057839;28;20644;-55
2022/05/09 09:30:48;;;;;;;7.37;3.47;;;19.50;56.30;20.30;101722.00;;;;5044240;28;20216;-55
2022/05/09 09:33:16;;;;;;;7.63;3.63;;;19.50;56.40;20.30;101729.00;;;;5044104;28;20194;-54
2022/05/09 09:35:56;;;;;;;7.40;3.13;;;19.50;56.50;20.30;101724.00;;;;5044470;28;20197;-55
2022/05/09 09:38:40;;;;;;;5.73;3.17;;;19.50;56.50;20.30;101719.00;;;;5044467;28;20176;-59
2022/05/09 09:41:31;;;;;;;5.40;3.30;;;19.50;56.50;20.40;101729.00;;;;5044449;28;20175;-54
2022/05/09 09:44:14;;;;;;;4.90;2.90;;;19.50;56.70;20.40;101720.00;;;;5045236;28;20167;-54
2022/05/09 09:47:02;;;;;;;4.60;3.20;;;19.60;56.80;20.40;101719.00;;;;5045386;28;20197;-56
2022/05/09 09:49:28;;;;;;;7.37;3.30;;;19.60;56.80;20.40;101715.00;;;;5045119;28;20276;-55
2022/05/09 09:51:54;;;;;;;4.30;3.07;;;19.60;56.90;20.40;101714.00;;;;5044950;28;20816;-53
2022/05/09 09:54:23;;;;;;;6.47;3.13;;;19.60;56.90;20.40;101705.00;;;;5045112;28;20230;-53
2022/05/09 09:56:48;;;;;;;3.87;3.07;;;19.70;57.30;20.40;101714.00;;;;5043990;28;20194;-55
2022/05/09 09:59:14;;;;;;;6.80;3.00;;;19.70;57.20;20.50;101702.00;;;;5043992;28;20659;-52
2022/05/09 10:01:40;;;;;;;5.07;3.17;;;19.70;57.30;20.50;101694.00;;;;5045180;28;20266;-55
2022/05/09 10:04:10;;;;;;;4.30;3.20;;;19.80;57.30;20.50;101703.00;;;;5043966;28;20189;-54
2022/05/09 10:06:56;;;;;;;3.70;2.80;;;19.80;57.50;20.60;101695.00;;;;5045104;28;20837;-54
2022/05/09 10:09:21;;;;;;;4.47;3.20;;;19.80;57.70;20.60;101684.00;;;;5045675;28;20263;-55
2022/05/09 10:11:47;;;;;;;4.17;3.10;;;19.80;57.90;20.60;101681.00;;;;5046230;28;20163;-53
2022/05/09 10:14:29;;;;;;;3.40;3.00;;;19.80;57.80;20.60;101684.00;;;;5064068;28;20198;-57
2022/05/09 10:16:55;;;;;;;3.23;2.93;;;19.90;57.90;20.70;101677.00;;;;5054230;28;20631;-54
2022/05/09 10:19:31;;;;;;;4.23;3.10;;;19.90;58.10;20.70;101615.00;;;;5044185;28;20178;-53
2022/05/09 10:25:23;;;;;;;3.77;3.13;;;19.90;57.90;20.70;101587.00;;;;5045737;28;20260;-52
2022/05/09 10:28:14;;;;;;;3.00;2.80;;;19.90;58.00;20.80;101671.00;;;;5048043;28;20185;-53
2022/05/09 10:30:43;;;;;;;4.10;3.10;;;20.00;58.20;20.80;101676.00;;;;5047791;28;20175;-54
2022/05/09 10:33:34;;;;;;;3.20;2.90;;;20.00;58.20;20.80;101677.00;;;;5047720;28;20273;-54
2022/05/09 10:36:08;;;;;;;3.50;3.17;;;20.10;58.30;20.90;101677.00;;;;5047651;28;20667;-54
2022/05/09 10:38:41;;;;;;;3.53;3.23;;;20.10;58.50;20.90;101655.00;;;;5047651;28;20146;-57
2022/05/09 10:41:24;;;;;;;2.97;2.73;;;20.10;58.40;21.00;101669.00;;;;5047724;28;20532;-52
2022/05/09 10:44:03;;;;;;;3.30;3.00;;;20.10;58.40;21.00;101664.00;;;;5047620;28;20176;-56
2022/05/09 10:46:51;;;;;;;3.37;3.07;;;20.20;58.60;21.00;101596.00;;;;5047623;28;20166;-54
2022/05/09 10:49:44;;;;;;;4.10;3.07;;;20.20;58.20;21.10;101657.00;;;;5047335;28;20533;-53
2022/05/09 10:52:34;;;;;;;3.40;3.10;;;20.20;58.30;21.10;101654.00;;;;5047551;28;20178;-54
2022/05/09 10:55:10;;;;;;;3.30;3.00;;;20.20;58.40;21.10;101655.00;;;;5047316;28;20258;-54
2022/05/09 10:57:59;;;;;;;3.33;3.03;;;20.30;58.50;21.10;101643.00;;;;5047113;28;20158;-56
2022/05/09 11:00:26;;;;;;;3.60;2.90;;;20.30;58.30;21.20;101651.00;;;;5047207;28;20193;-54
2022/05/09 11:03:34;;;;;;;3.67;2.90;;;20.30;58.30;21.20;101633.00;;;;5047148;28;20190;-55
2022/05/09 11:06:41;;;;;;;3.03;2.73;;;20.40;58.30;21.20;101560.00;;;;5046813;28;20628;-54
2022/05/09 11:09:41;;;;;;;3.67;2.90;;;20.40;58.20;21.20;101642.00;;;;5046635;28;20221;-54
2022/05/09 11:12:37;;;;;;;3.23;3.00;;;20.50;58.30;21.30;101630.00;;;;5047751;28;20163;-53